sensor_id;sensor_type;location;lat;lon;timestamp;P1;durP1;ratioP1;P2;durP2;ratioP2
3189;SDS011;1606;51.946;10.558;2022-08-19T00:01:39;19.60;;;10.73;;
3189;SDS011;1606;51.946;10.558;2022-08-19T00:04:09;17.60;;;12.03;;
3189;SDS011;1606;51.946;10.558;2022-08-19T00:06:39;21.33;;;12.80;;
3189;SDS011;1606;51.946;10.558;2022-08-19T00:09:10;17.53;;;11.80;;
3189;SDS011;1606;51.946;10.558;2022-08-19T00:11:38;18.13;;;12.90;;
3189;SDS011;1606;51.946;10.558;2022-08-19T00:14:07;20.60;;;12.37;;
3189;SDS011;1606;51.946;10.558;2022-08-19T00:16:39;19.00;;;14.27;;
3189;SDS011;1606;51.946;10.558;2022-08-19T00:19:08;21.77;;;17.40;;
3189;SDS011;1606;51.946;10.558;2022-08-19T00:21:36;22.77;;;16.30;;
3189;SDS011;1606;51.946;10.558;2022-08-19T00:24:06;20.90;;;15.70;;
3189;SDS011;1606;51.946;10.558;2022-08-19T00:26:35;23.97;;;17.47;;
3189;SDS011;1606;51.946;10.558;2022-08-19T00:29:04;25.47;;;17.33;;
3189;SDS011;1606;51.946;10.558;2022-08-19T00:31:33;22.13;;;16.40;;
3189;SDS011;1606;51.946;10.558;2022-08-19T00:34:03;22.87;;;16.20;;
3189;SDS011;1606;51.946;10.558;2022-08-19T00:36:31;23.40;;;16.50;;
3189;SDS011;1606;51.946;10.558;2022-08-19T00:38:59;22.50;;;16.47;;
3189;SDS011;1606;51.946;10.558;2022-08-19T00:41:27;22.63;;;15.80;;
3189;SDS011;1606;51.946;10.558;2022-08-19T00:43:59;24.07;;;17.77;;
3189;SDS011;1606;51.946;10.558;2022-08-19T00:46:28;22.37;;;16.00;;
3189;SDS011;1606;51.946;10.558;2022-08-19T00:48:56;27.07;;;16.83;;
3189;SDS011;1606;51.946;10.558;2022-08-19T00:51:27;20.77;;;15.40;;
3189;SDS011;1606;51.946;10.558;2022-08-19T00:53:58;23.87;;;16.87;;
3189;SDS011;1606;51.946;10.558;2022-08-19T00:56:28;24.80;;;17.43;;
3189;SDS011;1606;51.946;10.558;2022-08-19T00:58:56;28.80;;;18.90;;
3189;SDS011;1606;51.946;10.558;2022-08-19T01:01:26;26.07;;;18.93;;
3189;SDS011;1606;51.946;10.558;2022-08-19T01:03:53;29.30;;;17.90;;
3189;SDS011;1606;51.946;10.558;2022-08-19T01:06:24;24.63;;;18.13;;
3189;SDS011;1606;51.946;10.558;2022-08-19T01:08:54;22.70;;;17.67;;
3189;SDS011;1606;51.946;10.558;2022-08-19T01:11:22;22.47;;;15.50;;
3189;SDS011;1606;51.946;10.558;2022-08-19T01:13:50;22.03;;;14.60;;
3189;SDS011;1606;51.946;10.558;2022-08-19T01:16:20;21.63;;;15.20;;
3189;SDS011;1606;51.946;10.558;2022-08-19T01:18:50;23.67;;;15.70;;
3189;SDS011;1606;51.946;10.558;2022-08-19T01:21:21;22.20;;;15.47;;
3189;SDS011;1606;51.946;10.558;2022-08-19T01:23:54;20.30;;;14.43;;
3189;SDS011;1606;51.946;10.558;2022-08-19T01:26:23;20.57;;;15.37;;
3189;SDS011;1606;51.946;10.558;2022-08-19T01:28:55;20.13;;;14.13;;
3189;SDS011;1606;51.946;10.558;2022-08-19T01:31:27;20.50;;;14.13;;
3189;SDS011;1606;51.946;10.558;2022-08-19T01:33:58;21.50;;;13.80;;
3189;SDS011;1606;51.946;10.558;2022-08-19T01:36:28;20.30;;;12.93;;
3189;SDS011;1606;51.946;10.558;2022-08-19T01:38:59;23.03;;;13.87;;
3189;SDS011;1606;51.946;10.558;2022-08-19T01:41:29;21.47;;;13.70;;
3189;SDS011;1606;51.946;10.558;2022-08-19T01:43:56;17.27;;;11.00;;
3189;SDS011;1606;51.946;10.558;2022-08-19T01:46:43;23.13;;;13.17;;
3189;SDS011;1606;51.946;10.558;2022-08-19T01:49:11;17.40;;;11.30;;
3189;SDS011;1606;51.946;10.558;2022-08-19T01:51:39;21.53;;;12.57;;
3189;SDS011;1606;51.946;10.558;2022-08-19T01:54:09;21.50;;;14.17;;
3189;SDS011;1606;51.946;10.558;2022-08-19T01:56:38;21.23;;;13.37;;
3189;SDS011;1606;51.946;10.558;2022-08-19T01:59:08;18.67;;;13.83;;
3189;SDS011;1606;51.946;10.558;2022-08-19T02:01:39;18.50;;;13.17;;
3189;SDS011;1606;51.946;10.558;2022-08-19T02:04:07;20.50;;;13.27;;
3189;SDS011;1606;51.946;10.558;2022-08-19T02:06:35;17.70;;;12.00;;
3189;SDS011;1606;51.946;10.558;2022-08-19T02:09:04;17.30;;;11.77;;
3189;SDS011;1606;51.946;10.558;2022-08-19T02:11:36;19.50;;;12.17;;
3189;SDS011;1606;51.946;10.558;2022-08-19T02:14:06;19.50;;;12.57;;
3189;SDS011;1606;51.946;10.558;2022-08-19T02:16:35;18.30;;;12.27;;
3189;SDS011;1606;51.946;10.558;2022-08-19T02:19:04;19.73;;;12.43;;
3189;SDS011;1606;51.946;10.558;2022-08-19T02:21:33;18.17;;;11.47;;
3189;SDS011;1606;51.946;10.558;2022-08-19T02:24:01;17.50;;;11.77;;
3189;SDS011;1606;51.946;10.558;2022-08-19T02:26:31;17.87;;;11.90;;
3189;SDS011;1606;51.946;10.558;2022-08-19T02:29:00;20.13;;;12.07;;
3189;SDS011;1606;51.946;10.558;2022-08-19T02:31:28;17.23;;;11.07;;
3189;SDS011;1606;51.946;10.558;2022-08-19T02:33:56;18.20;;;11.93;;
3189;SDS011;1606;51.946;10.558;2022-08-19T02:36:25;20.87;;;13.70;;
3189;SDS011;1606;51.946;10.558;2022-08-19T02:38:55;21.60;;;12.17;;
3189;SDS011;1606;51.946;10.558;2022-08-19T02:41:25;19.73;;;12.10;;
3189;SDS011;1606;51.946;10.558;2022-08-19T02:43:54;19.60;;;12.23;;
3189;SDS011;1606;51.946;10.558;2022-08-19T02:46:46;20.60;;;11.97;;
3189;SDS011;1606;51.946;10.558;2022-08-19T02:49:17;18.50;;;12.13;;
3189;SDS011;1606;51.946;10.558;2022-08-19T02:51:46;20.00;;;12.83;;
3189;SDS011;1606;51.946;10.558;2022-08-19T02:54:14;19.03;;;13.37;;
3189;SDS011;1606;51.946;10.558;2022-08-19T02:56:43;19.40;;;13.40;;
3189;SDS011;1606;51.946;10.558;2022-08-19T02:59:12;19.77;;;13.80;;
3189;SDS011;1606;51.946;10.558;2022-08-19T03:01:40;21.10;;;14.63;;
3189;SDS011;1606;51.946;10.558;2022-08-19T03:04:11;20.07;;;13.73;;
3189;SDS011;1606;51.946;10.558;2022-08-19T03:06:41;20.67;;;14.93;;
3189;SDS011;1606;51.946;10.558;2022-08-19T03:09:10;24.47;;;15.13;;
3189;SDS011;1606;51.946;10.558;2022-08-19T03:11:39;22.53;;;14.60;;
3189;SDS011;1606;51.946;10.558;2022-08-19T03:14:08;22.00;;;15.43;;
3189;SDS011;1606;51.946;10.558;2022-08-19T03:16:40;20.47;;;14.87;;
3189;SDS011;1606;51.946;10.558;2022-08-19T03:19:13;30.83;;;16.57;;
3189;SDS011;1606;51.946;10.558;2022-08-19T03:21:43;24.60;;;17.30;;
3189;SDS011;1606;51.946;10.558;2022-08-19T03:24:12;25.70;;;15.67;;
3189;SDS011;1606;51.946;10.558;2022-08-19T03:26:41;25.00;;;15.80;;
3189;SDS011;1606;51.946;10.558;2022-08-19T03:29:11;27.97;;;17.80;;
3189;SDS011;1606;51.946;10.558;2022-08-19T03:31:40;30.00;;;18.53;;
3189;SDS011;1606;51.946;10.558;2022-08-19T03:34:21;28.30;;;19.53;;
3189;SDS011;1606;51.946;10.558;2022-08-19T03:36:53;31.30;;;18.50;;
3189;SDS011;1606;51.946;10.558;2022-08-19T03:39:22;24.20;;;18.50;;
3189;SDS011;1606;51.946;10.558;2022-08-19T03:41:51;28.30;;;18.93;;
3189;SDS011;1606;51.946;10.558;2022-08-19T03:44:43;27.27;;;19.80;;
3189;SDS011;1606;51.946;10.558;2022-08-19T03:47:11;26.23;;;20.03;;
3189;SDS011;1606;51.946;10.558;2022-08-19T03:49:44;26.87;;;18.90;;
3189;SDS011;1606;51.946;10.558;2022-08-19T03:52:12;24.73;;;19.10;;
3189;SDS011;1606;51.946;10.558;2022-08-19T03:54:40;28.30;;;18.87;;
3189;SDS011;1606;51.946;10.558;2022-08-19T03:57:08;25.57;;;17.87;;
3189;SDS011;1606;51.946;10.558;2022-08-19T03:59:37;24.87;;;18.93;;
3189;SDS011;1606;51.946;10.558;2022-08-19T04:02:07;25.87;;;18.70;;
3189;SDS011;1606;51.946;10.558;2022-08-19T04:04:37;26.37;;;17.93;;
3189;SDS011;1606;51.946;10.558;2022-08-19T04:07:08;23.73;;;16.57;;
3189;SDS011;1606;51.946;10.558;2022-08-19T04:09:37;27.47;;;17.43;;
3189;SDS011;1606;51.946;10.558;2022-08-19T04:12:05;27.83;;;18.43;;
3189;SDS011;1606;51.946;10.558;2022-08-19T04:14:33;26.83;;;17.77;;
3189;SDS011;1606;51.946;10.558;2022-08-19T04:17:02;26.63;;;19.42;;
3189;SDS011;1606;51.946;10.558;2022-08-19T04:19:30;26.23;;;17.67;;
3189;SDS011;1606;51.946;10.558;2022-08-19T04:21:59;25.53;;;17.10;;
3189;SDS011;1606;51.946;10.558;2022-08-19T04:24:28;25.20;;;18.13;;
3189;SDS011;1606;51.946;10.558;2022-08-19T04:26:58;21.03;;;15.53;;
3189;SDS011;1606;51.946;10.558;2022-08-19T04:29:26;22.37;;;16.90;;
3189;SDS011;1606;51.946;10.558;2022-08-19T04:31:55;21.77;;;16.17;;
3189;SDS011;1606;51.946;10.558;2022-08-19T04:34:25;23.30;;;17.13;;
3189;SDS011;1606;51.946;10.558;2022-08-19T04:36:55;25.40;;;17.50;;
3189;SDS011;1606;51.946;10.558;2022-08-19T04:39:25;27.27;;;17.00;;
3189;SDS011;1606;51.946;10.558;2022-08-19T04:42:12;23.93;;;17.93;;
3189;SDS011;1606;51.946;10.558;2022-08-19T04:44:57;28.00;;;16.90;;
3189;SDS011;1606;51.946;10.558;2022-08-19T04:47:26;24.33;;;16.90;;
3189;SDS011;1606;51.946;10.558;2022-08-19T04:50:14;27.07;;;18.30;;
3189;SDS011;1606;51.946;10.558;2022-08-19T04:52:42;23.43;;;17.90;;
3189;SDS011;1606;51.946;10.558;2022-08-19T04:55:10;25.40;;;17.60;;
3189;SDS011;1606;51.946;10.558;2022-08-19T04:57:40;23.33;;;15.67;;
3189;SDS011;1606;51.946;10.558;2022-08-19T05:00:08;23.73;;;16.50;;
3189;SDS011;1606;51.946;10.558;2022-08-19T05:02:36;27.20;;;16.77;;
3189;SDS011;1606;51.946;10.558;2022-08-19T05:05:05;25.50;;;17.60;;
3189;SDS011;1606;51.946;10.558;2022-08-19T05:07:33;26.00;;;17.83;;
3189;SDS011;1606;51.946;10.558;2022-08-19T05:10:01;23.37;;;17.50;;
3189;SDS011;1606;51.946;10.558;2022-08-19T05:12:30;25.43;;;17.17;;
3189;SDS011;1606;51.946;10.558;2022-08-19T05:15:01;25.93;;;16.20;;
3189;SDS011;1606;51.946;10.558;2022-08-19T05:17:31;23.40;;;16.33;;
3189;SDS011;1606;51.946;10.558;2022-08-19T05:20:04;27.37;;;17.73;;
3189;SDS011;1606;51.946;10.558;2022-08-19T05:22:51;25.40;;;16.80;;
3189;SDS011;1606;51.946;10.558;2022-08-19T05:25:20;26.50;;;16.80;;
3189;SDS011;1606;51.946;10.558;2022-08-19T05:27:48;26.63;;;17.97;;
3189;SDS011;1606;51.946;10.558;2022-08-19T05:30:18;27.10;;;19.00;;
3189;SDS011;1606;51.946;10.558;2022-08-19T05:33:06;26.00;;;17.97;;
3189;SDS011;1606;51.946;10.558;2022-08-19T05:35:35;24.93;;;18.17;;
3189;SDS011;1606;51.946;10.558;2022-08-19T05:38:03;25.83;;;18.53;;
3189;SDS011;1606;51.946;10.558;2022-08-19T05:40:33;25.47;;;19.30;;
3189;SDS011;1606;51.946;10.558;2022-08-19T05:43:02;29.30;;;18.03;;
3189;SDS011;1606;51.946;10.558;2022-08-19T05:45:31;29.40;;;19.27;;
3189;SDS011;1606;51.946;10.558;2022-08-19T05:47:59;27.00;;;19.13;;
3189;SDS011;1606;51.946;10.558;2022-08-19T05:50:27;28.90;;;19.50;;
3189;SDS011;1606;51.946;10.558;2022-08-19T05:52:55;27.57;;;19.47;;
3189;SDS011;1606;51.946;10.558;2022-08-19T05:55:23;24.83;;;19.30;;
3189;SDS011;1606;51.946;10.558;2022-08-19T05:57:51;28.80;;;20.37;;
3189;SDS011;1606;51.946;10.558;2022-08-19T06:00:19;26.63;;;18.40;;
3189;SDS011;1606;51.946;10.558;2022-08-19T06:02:51;24.67;;;18.00;;
3189;SDS011;1606;51.946;10.558;2022-08-19T06:05:21;23.57;;;16.50;;
3189;SDS011;1606;51.946;10.558;2022-08-19T06:07:48;24.77;;;17.53;;
3189;SDS011;1606;51.946;10.558;2022-08-19T06:10:16;24.30;;;17.40;;
3189;SDS011;1606;51.946;10.558;2022-08-19T06:12:44;25.10;;;17.00;;
3189;SDS011;1606;51.946;10.558;2022-08-19T06:15:12;22.53;;;15.43;;
3189;SDS011;1606;51.946;10.558;2022-08-19T06:17:41;23.10;;;15.47;;
3189;SDS011;1606;51.946;10.558;2022-08-19T06:20:12;20.07;;;14.03;;
3189;SDS011;1606;51.946;10.558;2022-08-19T06:22:42;22.00;;;13.77;;
3189;SDS011;1606;51.946;10.558;2022-08-19T06:25:11;23.80;;;14.90;;
3189;SDS011;1606;51.946;10.558;2022-08-19T06:27:40;23.10;;;15.67;;
3189;SDS011;1606;51.946;10.558;2022-08-19T06:30:28;21.33;;;13.63;;
3189;SDS011;1606;51.946;10.558;2022-08-19T06:32:57;23.50;;;14.70;;
3189;SDS011;1606;51.946;10.558;2022-08-19T06:35:26;24.13;;;17.37;;
3189;SDS011;1606;51.946;10.558;2022-08-19T06:37:55;22.77;;;15.80;;
3189;SDS011;1606;51.946;10.558;2022-08-19T06:40:23;25.70;;;16.47;;
3189;SDS011;1606;51.946;10.558;2022-08-19T06:42:51;20.80;;;14.00;;
3189;SDS011;1606;51.946;10.558;2022-08-19T06:45:20;24.20;;;15.70;;
3189;SDS011;1606;51.946;10.558;2022-08-19T06:47:59;22.50;;;15.90;;
3189;SDS011;1606;51.946;10.558;2022-08-19T06:50:29;22.27;;;13.63;;
3189;SDS011;1606;51.946;10.558;2022-08-19T06:52:57;24.43;;;14.10;;
3189;SDS011;1606;51.946;10.558;2022-08-19T06:55:29;18.77;;;11.90;;
3189;SDS011;1606;51.946;10.558;2022-08-19T06:58:01;17.63;;;11.70;;
3189;SDS011;1606;51.946;10.558;2022-08-19T07:00:29;18.93;;;12.90;;
3189;SDS011;1606;51.946;10.558;2022-08-19T07:02:57;20.57;;;11.53;;
3189;SDS011;1606;51.946;10.558;2022-08-19T07:05:38;19.70;;;11.80;;
3189;SDS011;1606;51.946;10.558;2022-08-19T07:08:11;16.73;;;10.93;;
3189;SDS011;1606;51.946;10.558;2022-08-19T07:10:42;18.20;;;11.23;;
3189;SDS011;1606;51.946;10.558;2022-08-19T07:13:10;14.83;;;9.67;;
3189;SDS011;1606;51.946;10.558;2022-08-19T07:15:38;17.30;;;11.33;;
3189;SDS011;1606;51.946;10.558;2022-08-19T07:18:06;15.87;;;9.90;;
3189;SDS011;1606;51.946;10.558;2022-08-19T07:20:38;15.53;;;9.40;;
3189;SDS011;1606;51.946;10.558;2022-08-19T07:23:07;14.33;;;9.33;;
3189;SDS011;1606;51.946;10.558;2022-08-19T07:25:41;16.30;;;9.10;;
3189;SDS011;1606;51.946;10.558;2022-08-19T07:28:17;17.27;;;10.70;;
3189;SDS011;1606;51.946;10.558;2022-08-19T07:30:50;15.40;;;8.83;;
3189;SDS011;1606;51.946;10.558;2022-08-19T07:33:18;15.43;;;9.70;;
3189;SDS011;1606;51.946;10.558;2022-08-19T07:35:47;17.27;;;8.97;;
3189;SDS011;1606;51.946;10.558;2022-08-19T07:38:16;16.77;;;10.53;;
3189;SDS011;1606;51.946;10.558;2022-08-19T07:40:50;19.47;;;11.50;;
3189;SDS011;1606;51.946;10.558;2022-08-19T07:43:23;17.30;;;10.10;;
3189;SDS011;1606;51.946;10.558;2022-08-19T07:46:00;17.43;;;10.73;;
3189;SDS011;1606;51.946;10.558;2022-08-19T07:48:28;19.90;;;10.77;;
3189;SDS011;1606;51.946;10.558;2022-08-19T07:50:58;18.97;;;10.17;;
3189;SDS011;1606;51.946;10.558;2022-08-19T07:53:29;16.43;;;10.00;;
3189;SDS011;1606;51.946;10.558;2022-08-19T07:56:04;16.90;;;10.90;;
3189;SDS011;1606;51.946;10.558;2022-08-19T07:58:33;15.80;;;10.27;;
3189;SDS011;1606;51.946;10.558;2022-08-19T08:01:04;17.27;;;11.00;;
3189;SDS011;1606;51.946;10.558;2022-08-19T08:03:35;16.83;;;10.53;;
3189;SDS011;1606;51.946;10.558;2022-08-19T08:06:23;14.53;;;9.77;;
3189;SDS011;1606;51.946;10.558;2022-08-19T08:09:08;14.90;;;10.03;;
3189;SDS011;1606;51.946;10.558;2022-08-19T08:11:44;15.23;;;9.23;;
3189;SDS011;1606;51.946;10.558;2022-08-19T08:14:16;14.33;;;9.17;;
3189;SDS011;1606;51.946;10.558;2022-08-19T08:16:55;13.30;;;8.37;;
3189;SDS011;1606;51.946;10.558;2022-08-19T08:19:26;14.50;;;8.47;;
3189;SDS011;1606;51.946;10.558;2022-08-19T08:21:57;13.60;;;8.23;;
3189;SDS011;1606;51.946;10.558;2022-08-19T08:24:27;12.77;;;7.87;;
3189;SDS011;1606;51.946;10.558;2022-08-19T08:26:57;12.17;;;7.60;;
3189;SDS011;1606;51.946;10.558;2022-08-19T08:29:27;14.20;;;8.93;;
3189;SDS011;1606;51.946;10.558;2022-08-19T08:32:00;12.20;;;7.20;;
3189;SDS011;1606;51.946;10.558;2022-08-19T08:34:28;13.50;;;8.20;;
3189;SDS011;1606;51.946;10.558;2022-08-19T08:36:57;15.00;;;8.40;;
3189;SDS011;1606;51.946;10.558;2022-08-19T08:39:25;13.90;;;8.10;;
3189;SDS011;1606;51.946;10.558;2022-08-19T08:41:56;11.70;;;7.47;;
3189;SDS011;1606;51.946;10.558;2022-08-19T08:44:43;13.27;;;7.20;;
3189;SDS011;1606;51.946;10.558;2022-08-19T08:47:25;12.57;;;7.10;;
3189;SDS011;1606;51.946;10.558;2022-08-19T08:49:59;12.50;;;7.33;;
3189;SDS011;1606;51.946;10.558;2022-08-19T08:52:31;13.30;;;7.47;;
3189;SDS011;1606;51.946;10.558;2022-08-19T08:55:05;14.90;;;9.73;;
3189;SDS011;1606;51.946;10.558;2022-08-19T08:57:37;15.50;;;7.90;;
3189;SDS011;1606;51.946;10.558;2022-08-19T09:00:09;14.40;;;8.73;;
3189;SDS011;1606;51.946;10.558;2022-08-19T09:02:42;16.30;;;9.77;;
3189;SDS011;1606;51.946;10.558;2022-08-19T09:05:17;13.97;;;9.20;;
3189;SDS011;1606;51.946;10.558;2022-08-19T09:07:49;14.50;;;10.35;;
3189;SDS011;1606;51.946;10.558;2022-08-19T09:10:27;13.93;;;10.47;;
3189;SDS011;1606;51.946;10.558;2022-08-19T09:13:01;14.40;;;10.73;;
3189;SDS011;1606;51.946;10.558;2022-08-19T09:15:39;18.43;;;11.00;;
3189;SDS011;1606;51.946;10.558;2022-08-19T09:18:12;15.13;;;11.73;;
3189;SDS011;1606;51.946;10.558;2022-08-19T09:20:45;15.23;;;11.80;;
3189;SDS011;1606;51.946;10.558;2022-08-19T09:23:15;15.47;;;10.03;;
3189;SDS011;1606;51.946;10.558;2022-08-19T09:25:52;18.83;;;11.43;;
3189;SDS011;1606;51.946;10.558;2022-08-19T09:28:19;17.80;;;10.83;;
3189;SDS011;1606;51.946;10.558;2022-08-19T09:30:52;15.97;;;11.77;;
3189;SDS011;1606;51.946;10.558;2022-08-19T09:33:20;14.60;;;10.10;;
3189;SDS011;1606;51.946;10.558;2022-08-19T09:35:48;17.27;;;10.33;;
3189;SDS011;1606;51.946;10.558;2022-08-19T09:38:20;14.77;;;10.87;;
3189;SDS011;1606;51.946;10.558;2022-08-19T09:40:48;16.77;;;11.47;;
3189;SDS011;1606;51.946;10.558;2022-08-19T09:43:16;16.87;;;12.00;;
3189;SDS011;1606;51.946;10.558;2022-08-19T09:45:59;15.00;;;11.67;;
3189;SDS011;1606;51.946;10.558;2022-08-19T09:48:27;20.17;;;12.63;;
3189;SDS011;1606;51.946;10.558;2022-08-19T09:51:01;18.10;;;12.50;;
3189;SDS011;1606;51.946;10.558;2022-08-19T09:53:31;13.50;;;10.83;;
3189;SDS011;1606;51.946;10.558;2022-08-19T09:56:02;23.83;;;11.20;;
3189;SDS011;1606;51.946;10.558;2022-08-19T09:58:33;17.03;;;10.77;;
3189;SDS011;1606;51.946;10.558;2022-08-19T10:01:02;15.77;;;8.70;;
3189;SDS011;1606;51.946;10.558;2022-08-19T10:03:32;12.73;;;9.67;;
3189;SDS011;1606;51.946;10.558;2022-08-19T10:06:02;15.38;;;10.65;;
3189;SDS011;1606;51.946;10.558;2022-08-19T10:08:44;14.70;;;9.60;;
3189;SDS011;1606;51.946;10.558;2022-08-19T10:11:16;15.63;;;9.40;;
3189;SDS011;1606;51.946;10.558;2022-08-19T10:13:59;16.90;;;10.37;;
3189;SDS011;1606;51.946;10.558;2022-08-19T10:16:28;12.80;;;9.27;;
3189;SDS011;1606;51.946;10.558;2022-08-19T10:18:56;14.00;;;8.10;;
3189;SDS011;1606;51.946;10.558;2022-08-19T10:21:26;15.93;;;9.47;;
3189;SDS011;1606;51.946;10.558;2022-08-19T10:23:59;14.73;;;8.57;;
3189;SDS011;1606;51.946;10.558;2022-08-19T10:26:31;13.13;;;8.23;;
3189;SDS011;1606;51.946;10.558;2022-08-19T10:29:01;13.17;;;7.30;;
3189;SDS011;1606;51.946;10.558;2022-08-19T10:31:31;13.77;;;9.20;;
3189;SDS011;1606;51.946;10.558;2022-08-19T10:34:20;13.40;;;8.80;;
3189;SDS011;1606;51.946;10.558;2022-08-19T10:36:54;14.20;;;9.17;;
3189;SDS011;1606;51.946;10.558;2022-08-19T10:39:28;13.07;;;8.40;;
3189;SDS011;1606;51.946;10.558;2022-08-19T10:42:08;21.83;;;9.13;;
3189;SDS011;1606;51.946;10.558;2022-08-19T10:44:39;16.00;;;9.37;;
3189;SDS011;1606;51.946;10.558;2022-08-19T10:47:07;16.10;;;9.63;;
3189;SDS011;1606;51.946;10.558;2022-08-19T10:49:50;15.77;;;9.47;;
3189;SDS011;1606;51.946;10.558;2022-08-19T10:52:37;14.70;;;8.57;;
3189;SDS011;1606;51.946;10.558;2022-08-19T10:55:17;12.93;;;8.13;;
3189;SDS011;1606;51.946;10.558;2022-08-19T10:58:03;12.13;;;7.03;;
3189;SDS011;1606;51.946;10.558;2022-08-19T11:00:36;13.60;;;8.80;;
3189;SDS011;1606;51.946;10.558;2022-08-19T11:03:04;13.13;;;8.10;;
3189;SDS011;1606;51.946;10.558;2022-08-19T11:05:34;13.77;;;8.70;;
3189;SDS011;1606;51.946;10.558;2022-08-19T11:08:05;15.40;;;10.07;;
3189;SDS011;1606;51.946;10.558;2022-08-19T11:10:50;15.03;;;10.97;;
3189;SDS011;1606;51.946;10.558;2022-08-19T11:13:19;12.17;;;8.40;;
3189;SDS011;1606;51.946;10.558;2022-08-19T11:15:55;12.00;;;8.67;;
3189;SDS011;1606;51.946;10.558;2022-08-19T11:18:28;17.47;;;10.20;;
3189;SDS011;1606;51.946;10.558;2022-08-19T11:21:04;18.67;;;9.77;;
3189;SDS011;1606;51.946;10.558;2022-08-19T11:23:33;13.30;;;8.47;;
3189;SDS011;1606;51.946;10.558;2022-08-19T11:26:02;11.27;;;7.90;;
3189;SDS011;1606;51.946;10.558;2022-08-19T11:28:30;12.03;;;7.00;;
3189;SDS011;1606;51.946;10.558;2022-08-19T11:30:58;11.93;;;6.70;;
3189;SDS011;1606;51.946;10.558;2022-08-19T11:33:26;9.67;;;6.17;;
3189;SDS011;1606;51.946;10.558;2022-08-19T11:35:53;12.63;;;7.37;;
3189;SDS011;1606;51.946;10.558;2022-08-19T11:38:23;11.13;;;6.57;;
3189;SDS011;1606;51.946;10.558;2022-08-19T11:40:55;11.80;;;7.43;;
3189;SDS011;1606;51.946;10.558;2022-08-19T11:43:25;13.60;;;7.20;;
3189;SDS011;1606;51.946;10.558;2022-08-19T11:45:53;10.17;;;6.30;;
3189;SDS011;1606;51.946;10.558;2022-08-19T11:48:22;11.00;;;6.27;;
3189;SDS011;1606;51.946;10.558;2022-08-19T11:50:52;10.20;;;6.23;;
3189;SDS011;1606;51.946;10.558;2022-08-19T11:53:21;9.50;;;5.60;;
3189;SDS011;1606;51.946;10.558;2022-08-19T11:55:53;10.73;;;6.70;;
3189;SDS011;1606;51.946;10.558;2022-08-19T11:58:22;10.87;;;5.77;;
3189;SDS011;1606;51.946;10.558;2022-08-19T12:00:52;10.43;;;6.20;;
3189;SDS011;1606;51.946;10.558;2022-08-19T12:03:20;10.73;;;5.80;;
3189;SDS011;1606;51.946;10.558;2022-08-19T12:05:48;9.70;;;5.40;;
3189;SDS011;1606;51.946;10.558;2022-08-19T12:08:17;8.80;;;5.23;;
3189;SDS011;1606;51.946;10.558;2022-08-19T12:10:45;10.17;;;5.20;;
3189;SDS011;1606;51.946;10.558;2022-08-19T12:13:14;9.63;;;5.30;;
3189;SDS011;1606;51.946;10.558;2022-08-19T12:15:47;9.13;;;4.60;;
3189;SDS011;1606;51.946;10.558;2022-08-19T12:18:15;13.07;;;5.30;;
3189;SDS011;1606;51.946;10.558;2022-08-19T12:20:43;8.67;;;5.17;;
3189;SDS011;1606;51.946;10.558;2022-08-19T12:23:11;12.90;;;6.37;;
3189;SDS011;1606;51.946;10.558;2022-08-19T12:25:43;8.63;;;4.30;;
3189;SDS011;1606;51.946;10.558;2022-08-19T12:28:16;8.30;;;3.80;;
3189;SDS011;1606;51.946;10.558;2022-08-19T12:30:45;7.87;;;4.07;;
3189;SDS011;1606;51.946;10.558;2022-08-19T12:33:13;10.37;;;4.20;;
3189;SDS011;1606;51.946;10.558;2022-08-19T12:35:41;12.00;;;4.80;;
3189;SDS011;1606;51.946;10.558;2022-08-19T12:38:11;8.33;;;3.57;;
3189;SDS011;1606;51.946;10.558;2022-08-19T12:40:39;7.70;;;4.00;;
3189;SDS011;1606;51.946;10.558;2022-08-19T12:43:08;11.23;;;3.70;;
3189;SDS011;1606;51.946;10.558;2022-08-19T12:45:37;7.73;;;3.50;;
3189;SDS011;1606;51.946;10.558;2022-08-19T12:48:08;11.13;;;3.63;;
3189;SDS011;1606;51.946;10.558;2022-08-19T12:50:56;8.63;;;3.70;;
3189;SDS011;1606;51.946;10.558;2022-08-19T12:53:24;8.40;;;3.90;;
3189;SDS011;1606;51.946;10.558;2022-08-19T12:55:54;7.90;;;4.00;;
3189;SDS011;1606;51.946;10.558;2022-08-19T12:58:23;8.23;;;3.47;;
3189;SDS011;1606;51.946;10.558;2022-08-19T13:00:52;8.33;;;4.20;;
3189;SDS011;1606;51.946;10.558;2022-08-19T13:03:22;7.33;;;3.57;;
3189;SDS011;1606;51.946;10.558;2022-08-19T13:05:55;8.47;;;3.87;;
3189;SDS011;1606;51.946;10.558;2022-08-19T13:08:23;10.27;;;3.60;;
3189;SDS011;1606;51.946;10.558;2022-08-19T13:10:51;11.53;;;3.37;;
3189;SDS011;1606;51.946;10.558;2022-08-19T13:13:19;7.60;;;3.43;;
3189;SDS011;1606;51.946;10.558;2022-08-19T13:15:47;9.27;;;3.93;;
3189;SDS011;1606;51.946;10.558;2022-08-19T13:18:15;7.53;;;3.50;;
3189;SDS011;1606;51.946;10.558;2022-08-19T13:20:44;7.20;;;2.90;;
3189;SDS011;1606;51.946;10.558;2022-08-19T13:23:18;8.30;;;3.50;;
3189;SDS011;1606;51.946;10.558;2022-08-19T13:25:54;8.03;;;2.90;;
3189;SDS011;1606;51.946;10.558;2022-08-19T13:28:23;8.43;;;2.67;;
3189;SDS011;1606;51.946;10.558;2022-08-19T13:30:54;6.90;;;2.50;;
3189;SDS011;1606;51.946;10.558;2022-08-19T13:33:40;7.30;;;2.30;;
3189;SDS011;1606;51.946;10.558;2022-08-19T13:36:09;7.67;;;3.07;;
3189;SDS011;1606;51.946;10.558;2022-08-19T13:38:37;9.70;;;3.00;;
3189;SDS011;1606;51.946;10.558;2022-08-19T13:41:05;7.47;;;3.40;;
3189;SDS011;1606;51.946;10.558;2022-08-19T13:43:39;7.20;;;2.80;;
3189;SDS011;1606;51.946;10.558;2022-08-19T13:46:08;9.27;;;3.03;;
3189;SDS011;1606;51.946;10.558;2022-08-19T13:48:39;8.30;;;2.93;;
3189;SDS011;1606;51.946;10.558;2022-08-19T13:51:09;7.10;;;2.87;;
3189;SDS011;1606;51.946;10.558;2022-08-19T13:53:37;8.60;;;3.23;;
3189;SDS011;1606;51.946;10.558;2022-08-19T13:56:05;6.63;;;2.57;;
3189;SDS011;1606;51.946;10.558;2022-08-19T13:58:34;7.90;;;3.47;;
3189;SDS011;1606;51.946;10.558;2022-08-19T14:01:02;7.70;;;3.13;;
3189;SDS011;1606;51.946;10.558;2022-08-19T14:03:32;8.03;;;3.10;;
3189;SDS011;1606;51.946;10.558;2022-08-19T14:06:01;8.03;;;2.73;;
3189;SDS011;1606;51.946;10.558;2022-08-19T14:08:30;8.13;;;3.83;;
3189;SDS011;1606;51.946;10.558;2022-08-19T14:10:58;8.87;;;3.27;;
3189;SDS011;1606;51.946;10.558;2022-08-19T14:13:31;6.60;;;2.70;;
3189;SDS011;1606;51.946;10.558;2022-08-19T14:16:00;6.40;;;2.40;;
3189;SDS011;1606;51.946;10.558;2022-08-19T14:18:28;9.00;;;3.43;;
3189;SDS011;1606;51.946;10.558;2022-08-19T14:20:56;6.73;;;3.17;;
3189;SDS011;1606;51.946;10.558;2022-08-19T14:23:24;10.53;;;3.20;;
3189;SDS011;1606;51.946;10.558;2022-08-19T14:25:53;7.80;;;2.97;;
3189;SDS011;1606;51.946;10.558;2022-08-19T14:28:29;9.27;;;3.23;;
3189;SDS011;1606;51.946;10.558;2022-08-19T14:30:57;7.67;;;3.20;;
3189;SDS011;1606;51.946;10.558;2022-08-19T14:33:25;7.70;;;3.77;;
3189;SDS011;1606;51.946;10.558;2022-08-19T14:35:55;7.37;;;3.03;;
3189;SDS011;1606;51.946;10.558;2022-08-19T14:38:25;7.27;;;3.20;;
3189;SDS011;1606;51.946;10.558;2022-08-19T14:41:06;8.97;;;3.00;;
3189;SDS011;1606;51.946;10.558;2022-08-19T14:43:35;8.67;;;3.33;;
3189;SDS011;1606;51.946;10.558;2022-08-19T14:46:04;7.93;;;2.73;;
3189;SDS011;1606;51.946;10.558;2022-08-19T14:48:32;8.30;;;3.13;;
3189;SDS011;1606;51.946;10.558;2022-08-19T14:51:06;7.43;;;2.87;;
3189;SDS011;1606;51.946;10.558;2022-08-19T14:53:34;10.67;;;3.43;;
3189;SDS011;1606;51.946;10.558;2022-08-19T14:56:08;8.63;;;3.30;;
3189;SDS011;1606;51.946;10.558;2022-08-19T14:58:36;7.40;;;2.70;;
3189;SDS011;1606;51.946;10.558;2022-08-19T15:01:06;8.90;;;3.80;;
3189;SDS011;1606;51.946;10.558;2022-08-19T15:03:34;7.60;;;3.37;;
3189;SDS011;1606;51.946;10.558;2022-08-19T15:06:03;6.50;;;2.90;;